sensor_id;sensor_type;location;lat;lon;timestamp;P1;durP1;ratioP1;P2;durP2;ratioP2
50267;SDS011;36153;50.960;6.220;2023-04-29T00:02:31;21.13;;;9.82;;
50267;SDS011;36153;50.960;6.220;2023-04-29T00:05:32;18.33;;;9.02;;
50267;SDS011;36153;50.960;6.220;2023-04-29T00:08:32;18.80;;;8.80;;
50267;SDS011;36153;50.960;6.220;2023-04-29T00:11:32;18.88;;;8.98;;
50267;SDS011;36153;50.960;6.220;2023-04-29T00:14:33;14.95;;;7.35;;
50267;SDS011;36153;50.960;6.220;2023-04-29T00:17:33;15.35;;;9.00;;
50267;SDS011;36153;50.960;6.220;2023-04-29T00:20:34;17.35;;;8.75;;
50267;SDS011;36153;50.960;6.220;2023-04-29T00:23:34;17.38;;;9.45;;
50267;SDS011;36153;50.960;6.220;2023-04-29T00:26:35;14.82;;;6.93;;
50267;SDS011;36153;50.960;6.220;2023-04-29T00:29:35;20.38;;;10.27;;
50267;SDS011;36153;50.960;6.220;2023-04-29T00:32:36;24.08;;;10.70;;
50267;SDS011;36153;50.960;6.220;2023-04-29T00:35:36;23.83;;;10.95;;
50267;SDS011;36153;50.960;6.220;2023-04-29T00:38:37;25.77;;;12.23;;
50267;SDS011;36153;50.960;6.220;2023-04-29T00:41:37;26.63;;;12.18;;
50267;SDS011;36153;50.960;6.220;2023-04-29T00:44:37;26.70;;;12.55;;
50267;SDS011;36153;50.960;6.220;2023-04-29T00:47:38;23.98;;;11.82;;
50267;SDS011;36153;50.960;6.220;2023-04-29T00:50:38;24.55;;;11.57;;
50267;SDS011;36153;50.960;6.220;2023-04-29T00:53:38;30.27;;;13.15;;
50267;SDS011;36153;50.960;6.220;2023-04-29T00:56:39;26.83;;;12.63;;
50267;SDS011;36153;50.960;6.220;2023-04-29T00:59:44;28.83;;;13.85;;
50267;SDS011;36153;50.960;6.220;2023-04-29T01:02:45;26.98;;;13.52;;
50267;SDS011;36153;50.960;6.220;2023-04-29T01:05:45;28.00;;;13.20;;
50267;SDS011;36153;50.960;6.220;2023-04-29T01:09:17;26.48;;;12.98;;
50267;SDS011;36153;50.960;6.220;2023-04-29T01:12:40;30.48;;;12.45;;
50267;SDS011;36153;50.960;6.220;2023-04-29T01:15:53;27.23;;;12.82;;
50267;SDS011;36153;50.960;6.220;2023-04-29T01:19:01;29.23;;;14.48;;
50267;SDS011;36153;50.960;6.220;2023-04-29T01:22:14;32.70;;;14.45;;
50267;SDS011;36153;50.960;6.220;2023-04-29T01:25:17;32.70;;;14.20;;
50267;SDS011;36153;50.960;6.220;2023-04-29T01:34:47;33.10;;;14.95;;
50267;SDS011;36153;50.960;6.220;2023-04-29T01:38:02;31.70;;;15.43;;
50267;SDS011;36153;50.960;6.220;2023-04-29T01:41:15;31.88;;;14.32;;
50267;SDS011;36153;50.960;6.220;2023-04-29T01:44:19;26.65;;;13.98;;
50267;SDS011;36153;50.960;6.220;2023-04-29T01:47:22;28.92;;;13.73;;
50267;SDS011;36153;50.960;6.220;2023-04-29T01:50:23;28.75;;;14.60;;
50267;SDS011;36153;50.960;6.220;2023-04-29T01:53:24;29.85;;;13.52;;
50267;SDS011;36153;50.960;6.220;2023-04-29T01:56:24;28.85;;;12.60;;
50267;SDS011;36153;50.960;6.220;2023-04-29T01:59:24;28.77;;;13.07;;
50267;SDS011;36153;50.960;6.220;2023-04-29T02:02:25;33.13;;;14.57;;
50267;SDS011;36153;50.960;6.220;2023-04-29T02:05:25;29.40;;;14.20;;
50267;SDS011;36153;50.960;6.220;2023-04-29T02:08:25;34.90;;;14.57;;
50267;SDS011;36153;50.960;6.220;2023-04-29T02:11:26;29.95;;;12.80;;
50267;SDS011;36153;50.960;6.220;2023-04-29T02:14:26;34.03;;;15.60;;
50267;SDS011;36153;50.960;6.220;2023-04-29T02:17:26;34.72;;;15.90;;
50267;SDS011;36153;50.960;6.220;2023-04-29T02:20:27;28.30;;;12.25;;
50267;SDS011;36153;50.960;6.220;2023-04-29T02:23:27;31.42;;;14.52;;
50267;SDS011;36153;50.960;6.220;2023-04-29T02:26:28;31.73;;;15.52;;
50267;SDS011;36153;50.960;6.220;2023-04-29T02:29:28;36.05;;;16.88;;
50267;SDS011;36153;50.960;6.220;2023-04-29T02:32:30;40.67;;;16.60;;
50267;SDS011;36153;50.960;6.220;2023-04-29T02:35:30;36.53;;;16.00;;
50267;SDS011;36153;50.960;6.220;2023-04-29T02:38:30;34.05;;;17.80;;
50267;SDS011;36153;50.960;6.220;2023-04-29T02:41:31;39.80;;;16.08;;
50267;SDS011;36153;50.960;6.220;2023-04-29T02:44:31;36.42;;;16.60;;
50267;SDS011;36153;50.960;6.220;2023-04-29T02:47:32;37.05;;;18.10;;
50267;SDS011;36153;50.960;6.220;2023-04-29T02:50:32;41.78;;;17.48;;
50267;SDS011;36153;50.960;6.220;2023-04-29T02:53:32;36.83;;;17.23;;
50267;SDS011;36153;50.960;6.220;2023-04-29T02:56:33;42.55;;;17.77;;
50267;SDS011;36153;50.960;6.220;2023-04-29T02:59:33;47.70;;;19.45;;
50267;SDS011;36153;50.960;6.220;2023-04-29T03:02:34;38.85;;;16.90;;
50267;SDS011;36153;50.960;6.220;2023-04-29T03:05:34;44.40;;;18.95;;
50267;SDS011;36153;50.960;6.220;2023-04-29T03:08:34;44.90;;;18.52;;
50267;SDS011;36153;50.960;6.220;2023-04-29T03:11:35;42.47;;;18.67;;
50267;SDS011;36153;50.960;6.220;2023-04-29T03:14:35;39.90;;;18.42;;
50267;SDS011;36153;50.960;6.220;2023-04-29T03:17:36;42.90;;;19.02;;
50267;SDS011;36153;50.960;6.220;2023-04-29T03:20:36;52.22;;;21.50;;
50267;SDS011;36153;50.960;6.220;2023-04-29T03:23:37;58.85;;;23.48;;
50267;SDS011;36153;50.960;6.220;2023-04-29T03:26:40;51.20;;;23.45;;
50267;SDS011;36153;50.960;6.220;2023-04-29T03:29:41;53.65;;;23.20;;
50267;SDS011;36153;50.960;6.220;2023-04-29T03:32:42;51.17;;;21.52;;
50267;SDS011;36153;50.960;6.220;2023-04-29T03:35:42;48.28;;;20.73;;
50267;SDS011;36153;50.960;6.220;2023-04-29T03:38:42;53.50;;;22.65;;
50267;SDS011;36153;50.960;6.220;2023-04-29T03:41:43;58.17;;;23.88;;
50267;SDS011;36153;50.960;6.220;2023-04-29T03:44:43;53.15;;;21.70;;
50267;SDS011;36153;50.960;6.220;2023-04-29T03:47:44;47.75;;;17.48;;
50267;SDS011;36153;50.960;6.220;2023-04-29T03:50:44;54.97;;;20.83;;
50267;SDS011;36153;50.960;6.220;2023-04-29T03:53:45;45.38;;;18.52;;
50267;SDS011;36153;50.960;6.220;2023-04-29T03:56:45;43.88;;;17.90;;
50267;SDS011;36153;50.960;6.220;2023-04-29T03:59:45;37.88;;;15.18;;
50267;SDS011;36153;50.960;6.220;2023-04-29T04:02:49;32.72;;;14.48;;
50267;SDS011;36153;50.960;6.220;2023-04-29T04:05:49;33.35;;;13.45;;
50267;SDS011;36153;50.960;6.220;2023-04-29T04:08:49;35.83;;;14.93;;
50267;SDS011;36153;50.960;6.220;2023-04-29T04:11:50;35.35;;;15.00;;
50267;SDS011;36153;50.960;6.220;2023-04-29T04:14:50;27.30;;;11.05;;
50267;SDS011;36153;50.960;6.220;2023-04-29T04:17:51;32.50;;;13.93;;
50267;SDS011;36153;50.960;6.220;2023-04-29T04:20:52;32.75;;;13.50;;
50267;SDS011;36153;50.960;6.220;2023-04-29T04:23:52;30.17;;;12.52;;
50267;SDS011;36153;50.960;6.220;2023-04-29T04:26:53;29.23;;;12.77;;
50267;SDS011;36153;50.960;6.220;2023-04-29T04:29:53;28.75;;;11.40;;
50267;SDS011;36153;50.960;6.220;2023-04-29T04:32:54;31.80;;;13.55;;
50267;SDS011;36153;50.960;6.220;2023-04-29T04:35:54;29.05;;;12.05;;
50267;SDS011;36153;50.960;6.220;2023-04-29T04:38:54;28.35;;;13.30;;
50267;SDS011;36153;50.960;6.220;2023-04-29T04:41:55;31.35;;;12.85;;
50267;SDS011;36153;50.960;6.220;2023-04-29T04:44:55;28.90;;;12.82;;
50267;SDS011;36153;50.960;6.220;2023-04-29T04:47:56;26.13;;;11.95;;
50267;SDS011;36153;50.960;6.220;2023-04-29T04:50:56;33.10;;;11.73;;
50267;SDS011;36153;50.960;6.220;2023-04-29T04:53:56;28.17;;;12.55;;
50267;SDS011;36153;50.960;6.220;2023-04-29T04:56:57;30.60;;;12.60;;
50267;SDS011;36153;50.960;6.220;2023-04-29T04:59:57;26.42;;;11.85;;
50267;SDS011;36153;50.960;6.220;2023-04-29T05:02:58;28.67;;;12.15;;
50267;SDS011;36153;50.960;6.220;2023-04-29T05:05:59;30.92;;;12.57;;
50267;SDS011;36153;50.960;6.220;2023-04-29T05:08:59;25.30;;;11.02;;
50267;SDS011;36153;50.960;6.220;2023-04-29T05:12:00;27.95;;;13.15;;
50267;SDS011;36153;50.960;6.220;2023-04-29T05:15:01;25.02;;;11.32;;
50267;SDS011;36153;50.960;6.220;2023-04-29T05:18:02;25.92;;;11.40;;
50267;SDS011;36153;50.960;6.220;2023-04-29T05:21:03;26.25;;;11.77;;
50267;SDS011;36153;50.960;6.220;2023-04-29T05:24:03;27.88;;;11.27;;
50267;SDS011;36153;50.960;6.220;2023-04-29T05:27:05;23.15;;;10.43;;
50267;SDS011;36153;50.960;6.220;2023-04-29T05:30:05;25.10;;;10.95;;
50267;SDS011;36153;50.960;6.220;2023-04-29T05:33:06;29.60;;;11.50;;
50267;SDS011;36153;50.960;6.220;2023-04-29T05:36:06;25.73;;;12.07;;
50267;SDS011;36153;50.960;6.220;2023-04-29T05:39:07;25.98;;;11.95;;
50267;SDS011;36153;50.960;6.220;2023-04-29T05:42:07;23.92;;;11.00;;
50267;SDS011;36153;50.960;6.220;2023-04-29T05:45:08;20.17;;;9.55;;
50267;SDS011;36153;50.960;6.220;2023-04-29T05:48:09;21.55;;;10.05;;
50267;SDS011;36153;50.960;6.220;2023-04-29T05:51:09;23.48;;;9.73;;
50267;SDS011;36153;50.960;6.220;2023-04-29T05:54:09;22.10;;;10.77;;
50267;SDS011;36153;50.960;6.220;2023-04-29T05:57:10;24.05;;;10.20;;
50267;SDS011;36153;50.960;6.220;2023-04-29T06:00:10;17.27;;;8.23;;
50267;SDS011;36153;50.960;6.220;2023-04-29T06:03:11;16.38;;;8.30;;
50267;SDS011;36153;50.960;6.220;2023-04-29T06:06:11;26.30;;;11.07;;
50267;SDS011;36153;50.960;6.220;2023-04-29T06:09:12;22.23;;;10.63;;
50267;SDS011;36153;50.960;6.220;2023-04-29T06:12:14;20.40;;;10.93;;
50267;SDS011;36153;50.960;6.220;2023-04-29T06:15:15;21.73;;;11.07;;
50267;SDS011;36153;50.960;6.220;2023-04-29T06:18:15;19.75;;;10.60;;
50267;SDS011;36153;50.960;6.220;2023-04-29T06:21:15;22.40;;;9.55;;
50267;SDS011;36153;50.960;6.220;2023-04-29T06:24:16;25.67;;;10.23;;
50267;SDS011;36153;50.960;6.220;2023-04-29T06:27:16;18.90;;;9.32;;
50267;SDS011;36153;50.960;6.220;2023-04-29T06:30:16;24.88;;;10.30;;
50267;SDS011;36153;50.960;6.220;2023-04-29T06:33:17;22.92;;;9.15;;
50267;SDS011;36153;50.960;6.220;2023-04-29T06:36:18;21.92;;;9.30;;
50267;SDS011;36153;50.960;6.220;2023-04-29T06:39:19;20.10;;;10.02;;
50267;SDS011;36153;50.960;6.220;2023-04-29T06:42:19;21.65;;;10.20;;
50267;SDS011;36153;50.960;6.220;2023-04-29T06:45:20;18.98;;;9.90;;
